Time;durP1;ratioP1;P1;durP2;ratioP2;P2;SDS_P1;SDS_P2;PMS_P1;PMS_P2;Temp;Humidity;BMP_temperature;BMP_pressure;BME280_temperature;BME280_humidity;BME280_pressure;Samples;Min_cycle;Max_cycle;Signal;HPM_P1;HPM_P2
2021/08/01 00:00:38;;;;;;;;;;;;;;;;;;5047228;28;19912;-61
2021/08/01 00:03:04;;;;;;;;;;;;;;;;;;5029685;28;19913;-61
2021/08/01 00:05:30;;;;;;;;;;;;;;;;;;5043214;28;19935;-61
2021/08/01 00:07:56;;;;;;;;;;;;;;;;;;5053171;28;19920;-61
2021/08/01 00:10:22;;;;;;;;;;;;;;;;;;5051266;28;19909;-61
2021/08/01 00:12:48;;;;;;;;;;;;;;;;;;5040851;28;19913;-61
2021/08/01 00:15:13;;;;;;;;;;;;;;;;;;5023283;28;19948;-61
2021/08/01 00:17:39;;;;;;;;;;;;;;;;;;5043208;28;19913;-61
2021/08/01 00:20:05;;;;;;;;;;;;;;;;;;5052711;28;20288;-61
2021/08/01 00:22:31;;;;;;;;;;;;;;;;;;5036902;28;19909;-61
2021/08/01 00:24:57;;;;;;;;;;;;;;;;;;5040971;28;20014;-61
2021/08/01 00:27:23;;;;;;;;;;;;;;;;;;5049002;28;19927;-61
2021/08/01 00:29:49;;;;;;;;;;;;;;;;;;5052194;28;20303;-61
2021/08/01 00:32:15;;;;;;;;;;;;;;;;;;5041320;28;20033;-61
2021/08/01 00:34:40;;;;;;;;;;;;;;;;;;5018794;28;20360;-61
2021/08/01 00:37:06;;;;;;;;;;;;;;;;;;5053385;28;19909;-61
2021/08/01 00:39:32;;;;;;;;;;;;;;;;;;5042857;28;19963;-61
2021/08/01 00:41:58;;;;;;;;;;;;;;;;;;5043382;28;19940;-61
2021/08/01 00:44:24;;;;;;;;;;;;;;;;;;5040788;28;19913;-62
2021/08/01 00:46:50;;;;;;;;;;;;;;;;;;5052284;28;20016;-61
2021/08/01 00:49:16;;;;;;;;;;;;;;;;;;5053128;28;19955;-62
2021/08/01 00:51:42;;;;;;;;;;;;;;;;;;5041170;28;19952;-61
2021/08/01 00:54:07;;;;;;;;;;;;;;;;;;5039538;28;19952;-61
2021/08/01 00:56:33;;;;;;;;;;;;;;;;;;5041590;28;19913;-61
2021/08/01 00:58:59;;;;;;;;;;;;;;;;;;5052146;28;19948;-61
2021/08/01 01:01:25;;;;;;;;;;;;;;;;;;5052486;28;19916;-61
2021/08/01 01:03:53;;;;;;;;;;;;;;;;;;5040107;28;19909;-61
2021/08/01 01:06:19;;;;;;;;;;;;;;;;;;5049714;28;19994;-61
2021/08/01 01:08:45;;;;;;;;;;;;;;;;;;5034372;28;19983;-61
2021/08/01 01:11:13;;;;;;;;;;;;;;;;;;5047878;28;19921;-61
2021/08/01 01:13:39;;;;;;;;;;;;;;;;;;5052017;28;19919;-61
2021/08/01 01:16:05;;;;;;;;;;;;;;;;;;5036737;28;20352;-61
2021/08/01 01:18:31;;;;;;;;;;;;;;;;;;5048533;28;19917;-61
2021/08/01 01:20:57;;;;;;;;;;;;;;;;;;5048538;28;19916;-61
2021/08/01 01:23:25;;;;;;;;;;;;;;;;;;5051417;28;20360;-61
2021/08/01 01:25:51;;;;;;;;;;;;;;;;;;5051276;28;19917;-61
2021/08/01 01:28:16;;;;;;;;;;;;;;;;;;5036948;28;20387;-61
2021/08/01 01:30:42;;;;;;;;;;;;;;;;;;5050229;28;20392;-61
2021/08/01 01:33:08;;;;;;;;;;;;;;;;;;5051264;28;19920;-61
2021/08/01 01:35:36;;;;;;;;;;;;;;;;;;5050153;28;20622;-61
2021/08/01 01:38:01;;;;;;;;;;;;;;;;;;5037042;28;19962;-61
2021/08/01 01:40:27;;;;;;;;;;;;;;;;;;5048718;28;19921;-61
2021/08/01 01:42:53;;;;;;;;;;;;;;;;;;5039095;28;19925;-61
2021/08/01 01:45:19;;;;;;;;;;;;;;;;;;5047139;28;20421;-61
2021/08/01 01:47:45;;;;;;;;;;;;;;;;;;5051075;28;19920;-62
2021/08/01 01:50:11;;;;;;;;;;;;;;;;;;5048988;28;19967;-61
2021/08/01 01:52:37;;;;;;;;;;;;;;;;;;5034870;28;20404;-61
2021/08/01 01:55:03;;;;;;;;;;;;;;;;;;5038240;28;19971;-61
2021/08/01 01:57:28;;;;;;;;;;;;;;;;;;5039582;28;19919;-61
2021/08/01 01:59:54;;;;;;;;;;;;;;;;;;5039469;28;19913;-61
2021/08/01 02:02:20;;;;;;;;;;;;;;;;;;5049923;28;19940;-61
2021/08/01 02:04:46;;;;;;;;;;;;;;;;;;5048393;28;20494;-61
2021/08/01 02:07:12;;;;;;;;;;;;;;;;;;5051587;28;19966;-61
2021/08/01 02:09:38;;;;;;;;;;;;;;;;;;5039055;28;19910;-61
2021/08/01 02:12:04;;;;;;;;;;;;;;;;;;5047198;28;20327;-61
2021/08/01 02:14:30;;;;;;;;;;;;;;;;;;5051020;28;19909;-61
2021/08/01 02:16:55;;;;;;;;;;;;;;;;;;5050544;28;20404;-61
2021/08/01 02:19:21;;;;;;;;;;;;;;;;;;5046976;28;19963;-61
2021/08/01 02:21:47;;;;;;;;;;;;;;;;;;5047434;28;19916;-61
2021/08/01 02:24:13;;;;;;;;;;;;;;;;;;5048607;28;19914;-61
2021/08/01 02:26:39;;;;;;;;;;;;;;;;;;5042646;28;19912;-61
2021/08/01 02:29:05;;;;;;;;;;;;;;;;;;5040367;28;20450;-61
2021/08/01 02:31:31;;;;;;;;;;;;;;;;;;5043890;28;20009;-61
2021/08/01 02:33:56;;;;;;;;;;;;;;;;;;5042281;28;20245;-61
2021/08/01 02:36:22;;;;;;;;;;;;;;;;;;5025672;28;19910;-61
2021/08/01 02:38:48;;;;;;;;;;;;;;;;;;5042714;28;19947;-61
2021/08/01 02:41:14;;;;;;;;;;;;;;;;;;5044385;28;19928;-61
2021/08/01 02:43:40;;;;;;;;;;;;;;;;;;5054521;28;19909;-61
2021/08/01 02:46:06;;;;;;;;;;;;;;;;;;5055551;28;19915;-61
2021/08/01 02:48:32;;;;;;;;;;;;;;;;;;5054462;28;19920;-61
2021/08/01 02:50:58;;;;;;;;;;;;;;;;;;5050715;28;19912;-61
2021/08/01 02:53:24;;;;;;;;;;;;;;;;;;5054605;28;20002;-61
2021/08/01 02:55:49;;;;;;;;;;;;;;;;;;5054269;28;20018;-61
2021/08/01 02:58:15;;;;;;;;;;;;;;;;;;5039896;28;19955;-61
2021/08/01 03:00:44;;;;;;;;;;;;;;;;;;5047366;28;19913;-61
2021/08/01 03:03:09;;;;;;;;;;;;;;;;;;5049149;28;20003;-61
2021/08/01 03:05:35;;;;;;;;;;;;;;;;;;5051241;28;20008;-61
2021/08/01 03:08:01;;;;;;;;;;;;;;;;;;5053479;28;19921;-61
2021/08/01 03:10:27;;;;;;;;;;;;;;;;;;5041049;28;19944;-61
2021/08/01 03:12:53;;;;;;;;;;;;;;;;;;5042074;28;20353;-61
2021/08/01 03:15:19;;;;;;;;;;;;;;;;;;5048966;28;20043;-61
2021/08/01 03:17:45;;;;;;;;;;;;;;;;;;5051467;28;19988;-61
2021/08/01 03:20:11;;;;;;;;;;;;;;;;;;5038987;28;20359;-61
2021/08/01 03:22:37;;;;;;;;;;;;;;;;;;5051971;28;19963;-61
2021/08/01 03:25:03;;;;;;;;;;;;;;;;;;5054765;28;20015;-61
2021/08/01 03:27:29;;;;;;;;;;;;;;;;;;5053655;28;20364;-61
2021/08/01 03:29:55;;;;;;;;;;;;;;;;;;5053351;28;19960;-61
2021/08/01 03:32:20;;;;;;;;;;;;;;;;;;5042640;28;19980;-61
2021/08/01 03:34:48;;;;;;;;;;;;;;;;;;5053013;28;20000;-61
2021/08/01 03:37:14;;;;;;;;;;;;;;;;;;5054509;28;19916;-61
2021/08/01 03:39:39;;;;;;;;;;;;;;;;;;5043422;28;19914;-61
2021/08/01 03:42:05;;;;;;;;;;;;;;;;;;5049873;28;19924;-61
2021/08/01 03:44:31;;;;;;;;;;;;;;;;;;5053738;28;19964;-61
2021/08/01 03:46:57;;;;;;;;;;;;;;;;;;5053519;28;19935;-61
2021/08/01 03:49:23;;;;;;;;;;;;;;;;;;5037757;28;19913;-61
2021/08/01 03:51:49;;;;;;;;;;;;;;;;;;5050122;28;19963;-61
2021/08/01 03:54:15;;;;;;;;;;;;;;;;;;5046449;28;19920;-61
2021/08/01 03:56:43;;;;;;;;;;;;;;;;;;5039973;28;19917;-61
2021/08/01 03:59:08;;;;;;;;;;;;;;;;;;5039098;28;20350;-61
2021/08/01 04:01:34;;;;;;;;;;;;;;;;;;5053402;28;19908;-61
2021/08/01 04:04:00;;;;;;;;;;;;;;;;;;5053474;28;19913;-61
2021/08/01 04:06:26;;;;;;;;;;;;;;;;;;5050518;28;20392;-61
2021/08/01 04:08:52;;;;;;;;;;;;;;;;;;5049282;28;20400;-61
2021/08/01 04:11:18;;;;;;;;;;;;;;;;;;5043136;28;20019;-61
2021/08/01 04:13:44;;;;;;;;;;;;;;;;;;5053015;28;19935;-61
2021/08/01 04:16:10;;;;;;;;;;;;;;;;;;5054034;28;19912;-61
2021/08/01 04:18:35;;;;;;;;;;;;;;;;;;5052182;28;19921;-61
2021/08/01 04:21:01;;;;;;;;;;;;;;;;;;5046828;28;20398;-61
2021/08/01 04:23:27;;;;;;;;;;;;;;;;;;5041781;28;20019;-61
2021/08/01 04:25:53;;;;;;;;;;;;;;;;;;5053098;28;19967;-61
2021/08/01 04:28:19;;;;;;;;;;;;;;;;;;5053378;28;19928;-61
2021/08/01 04:30:45;;;;;;;;;;;;;;;;;;5047013;28;19952;-61
2021/08/01 04:33:11;;;;;;;;;;;;;;;;;;5052585;28;19945;-61
2021/08/01 04:35:37;;;;;;;;;;;;;;;;;;5043529;28;20283;-61
2021/08/01 04:38:02;;;;;;;;;;;;;;;;;;5052788;28;19997;-61
2021/08/01 04:40:28;;;;;;;;;;;;;;;;;;5049251;28;19948;-61
2021/08/01 04:42:54;;;;;;;;;;;;;;;;;;5052901;28;19975;-61
2021/08/01 04:45:20;;;;;;;;;;;;;;;;;;5045315;28;19967;-61
2021/08/01 04:47:46;;;;;;;;;;;;;;;;;;5040931;28;20016;-61
2021/08/01 04:50:12;;;;;;;;;;;;;;;;;;5037445;28;19909;-61
2021/08/01 04:52:39;;;;;;;;;;;;;;;;;;5050487;28;19920;-61
2021/08/01 04:55:05;;;;;;;;;;;;;;;;;;5050184;28;19913;-61
2021/08/01 04:57:31;;;;;;;;;;;;;;;;;;5049643;28;20277;-61
2021/08/01 04:59:57;;;;;;;;;;;;;;;;;;5045528;28;19913;-61
2021/08/01 05:02:22;;;;;;;;;;;;;;;;;;5050851;28;19952;-61
2021/08/01 05:04:48;;;;;;;;;;;;;;;;;;5049129;28;19928;-61
2021/08/01 05:07:14;;;;;;;;;;;;;;;;;;5037989;28;20288;-61
2021/08/01 05:09:40;;;;;;;;;;;;;;;;;;5050410;28;19999;-61
2021/08/01 05:12:06;;;;;;;;;;;;;;;;;;5046936;28;19917;-61
2021/08/01 05:14:32;;;;;;;;;;;;;;;;;;5051743;28;19913;-61
2021/08/01 05:16:58;;;;;;;;;;;;;;;;;;5051961;28;19920;-61
2021/08/01 05:19:24;;;;;;;;;;;;;;;;;;5052389;28;19947;-61
2021/08/01 05:21:49;;;;;;;;;;;;;;;;;;5048368;28;19912;-61
2021/08/01 05:24:15;;;;;;;;;;;;;;;;;;5051810;28;19935;-61
2021/08/01 05:26:41;;;;;;;;;;;;;;;;;;5050713;28;20441;-61
2021/08/01 05:29:08;;;;;;;;;;;;;;;;;;5049837;28;19999;-61
2021/08/01 05:31:34;;;;;;;;;;;;;;;;;;5046322;28;19908;-61
2021/08/01 05:34:00;;;;;;;;;;;;;;;;;;5039578;28;20001;-61
2021/08/01 05:36:26;;;;;;;;;;;;;;;;;;5047903;28;19912;-61
2021/08/01 05:38:51;;;;;;;;;;;;;;;;;;5051382;28;19939;-61
2021/08/01 05:41:17;;;;;;;;;;;;;;;;;;5020520;28;19999;-61
2021/08/01 05:43:43;;;;;;;;;;;;;;;;;;5035559;28;19909;-61
2021/08/01 05:46:09;;;;;;;;;;;;;;;;;;5037552;28;19913;-61
2021/08/01 05:48:35;;;;;;;;;;;;;;;;;;5021621;28;19928;-62
2021/08/01 05:51:01;;;;;;;;;;;;;;;;;;5040836;28;19956;-62
2021/08/01 05:53:27;;;;;;;;;;;;;;;;;;5051406;28;20391;-63
2021/08/01 05:55:53;;;;;;;;;;;;;;;;;;5035304;28;19921;-62
2021/08/01 05:58:19;;;;;;;;;;;;;;;;;;5051251;28;19923;-62
2021/08/01 06:00:45;;;;;;;;;;;;;;;;;;5045205;28;20441;-62
2021/08/01 06:03:10;;;;;;;;;;;;;;;;;;5050753;28;19935;-61
2021/08/01 06:05:36;;;;;;;;;;;;;;;;;;5047118;28;19913;-61
2021/08/01 06:08:02;;;;;;;;;;;;;;;;;;5036082;28;19921;-61
2021/08/01 06:10:28;;;;;;;;;;;;;;;;;;5041062;28;20401;-61
2021/08/01 06:12:54;;;;;;;;;;;;;;;;;;5051197;28;19955;-61
2021/08/01 06:15:20;;;;;;;;;;;;;;;;;;5042025;28;19964;-63
2021/08/01 06:17:46;;;;;;;;;;;;;;;;;;5039686;28;19966;-63
2021/08/01 06:20:12;;;;;;;;;;;;;;;;;;5035678;28;19917;-63
2021/08/01 06:22:38;;;;;;;;;;;;;;;;;;5033984;28;20000;-61
2021/08/01 06:25:04;;;;;;;;;;;;;;;;;;5051694;28;19916;-62
2021/08/01 06:27:29;;;;;;;;;;;;;;;;;;5042284;28;20287;-63
2021/08/01 06:29:55;;;;;;;;;;;;;;;;;;5039456;28;19935;-69
2021/08/01 06:32:21;;;;;;;;;;;;;;;;;;5049231;28;19913;-65
2021/08/01 06:34:47;;;;;;;;;;;;;;;;;;5034274;28;19920;-66
2021/08/01 06:37:13;;;;;;;;;;;;;;;;;;5037128;28;19992;-66
2021/08/01 06:39:39;;;;;;;;;;;;;;;;;;5038989;28;20035;-69
2021/08/01 06:42:05;;;;;;;;;;;;;;;;;;5045788;28;20000;-70
2021/08/01 06:44:31;;;;;;;;;;;;;;;;;;5049356;28;19913;-69
2021/08/01 06:46:56;;;;;;;;;;;;;;;;;;5035255;28;19913;-70
2021/08/01 06:49:22;;;;;;;;;;;;;;;;;;5051499;28;19919;-67
2021/08/01 06:51:48;;;;;;;;;;;;;;;;;;5047253;28;20413;-67
2021/08/01 06:54:14;;;;;;;;;;;;;;;;;;5044272;28;19921;-67
2021/08/01 06:56:40;;;;;;;;;;;;;;;;;;5038241;28;19913;-68
2021/08/01 06:59:06;;;;;;;;;;;;;;;;;;5035878;28;19956;-68
2021/08/01 07:01:32;;;;;;;;;;;;;;;;;;5037775;28;19967;-67
2021/08/01 07:03:58;;;;;;;;;;;;;;;;;;5041194;28;19995;-67
2021/08/01 07:06:24;;;;;;;;;;;;;;;;;;5041604;28;19910;-67
2021/08/01 07:08:49;;;;;;;;;;;;;;;;;;5037299;28;19921;-67
2021/08/01 07:11:15;;;;;;;;;;;;;;;;;;5040131;28;19971;-67
2021/08/01 07:13:42;;;;;;;;;;;;;;;;;;5043748;28;20338;-67
2021/08/01 07:16:08;;;;;;;;;;;;;;;;;;5042371;28;19936;-67
2021/08/01 07:18:34;;;;;;;;;;;;;;;;;;5044510;28;19913;-67
2021/08/01 07:21:00;;;;;;;;;;;;;;;;;;5042432;28;19928;-67
2021/08/01 07:23:27;;;;;;;;;;;;;;;;;;5045584;28;19990;-67
2021/08/01 07:25:53;;;;;;;;;;;;;;;;;;5046441;28;19921;-67
2021/08/01 07:28:19;;;;;;;;;;;;;;;;;;5044536;28;19943;-67
2021/08/01 07:30:44;;;;;;;;;;;;;;;;;;5043112;28;19916;-68
2021/08/01 07:33:10;;;;;;;;;;;;;;;;;;5042738;28;19913;-68
2021/08/01 07:35:36;;;;;;;;;;;;;;;;;;5029012;28;19917;-70
2021/08/01 07:38:03;;;;;;;;;;;;;;;;;;5033778;28;19913;-70
2021/08/01 07:40:29;;;;;;;;;;;;;;;;;;5038923;28;20387;-70
2021/08/01 07:42:55;;;;;;;;;;;;;;;;;;5038598;28;20017;-68
2021/08/01 07:45:31;;;;;;;;;;;;;;;;;;5048158;28;19912;-68
2021/08/01 07:47:57;;;;;;;;;;;;;;;;;;5052006;28;20054;-67
2021/08/01 07:50:23;;;;;;;;;;;;;;;;;;5033596;28;20311;-68
2021/08/01 07:52:49;;;;;;;;;;;;;;;;;;5051747;28;20296;-69
2021/08/01 07:55:15;;;;;;;;;;;;;;;;;;5053146;28;19909;-69
2021/08/01 07:57:41;;;;;;;;;;;;;;;;;;5051423;28;19955;-68
2021/08/01 08:00:07;;;;;;;;;;;;;;;;;;5045419;28;19913;-69
2021/08/01 08:02:33;;;;;;;;;;;;;;;;;;5047550;28;19908;-79
2021/08/01 08:04:59;;;;;;;;;;;;;;;;;;5050645;28;19917;-72
2021/08/01 08:07:25;;;;;;;;;;;;;;;;;;5054280;28;19912;-72
2021/08/01 08:09:51;;;;;;;;;;;;;;;;;;5053225;28;19923;-69
2021/08/01 08:12:16;;;;;;;;;;;;;;;;;;5042612;28;20058;-67
2021/08/01 08:14:42;;;;;;;;;;;;;;;;;;5043915;28;19913;-70
2021/08/01 08:17:08;;;;;;;;;;;;;;;;;;5053285;28;19908;-67
2021/08/01 08:19:34;;;;;;;;;;;;;;;;;;5052739;28;19913;-66
2021/08/01 08:22:00;;;;;;;;;;;;;;;;;;5048959;28;20399;-65
2021/08/01 08:24:26;;;;;;;;;;;;;;;;;;5053089;28;19916;-68
2021/08/01 08:26:52;;;;;;;;;;;;;;;;;;5051844;28;19919;-67
2021/08/01 08:29:18;;;;;;;;;;;;;;;;;;5052733;28;19940;-66
2021/08/01 08:31:49;;;;;;;;;;;;;;;;;;5052278;28;20017;-68
2021/08/01 08:34:15;;;;;;;;;;;;;;;;;;5052361;28;20558;-65
2021/08/01 08:36:42;;;;;;;;;;;;;;;;;;5052554;28;19908;-65
2021/08/01 08:39:08;;;;;;;;;;;;;;;;;;5052692;28;19912;-67
2021/08/01 08:41:34;;;;;;;;;;;;;;;;;;5050154;28;19943;-67
2021/08/01 08:44:00;;;;;;;;;;;;;;;;;;5036339;28;19960;-68
2021/08/01 08:46:25;;;;;;;;;;;;;;;;;;5052942;28;20315;-65
2021/08/01 08:48:51;;;;;;;;;;;;;;;;;;5052295;28;19950;-74
2021/08/01 08:51:17;;;;;;;;;;;;;;;;;;5048933;28;20384;-68
2021/08/01 08:53:43;;;;;;;;;;;;;;;;;;5050563;28;19916;-77
2021/08/01 08:56:09;;;;;;;;;;;;;;;;;;5051864;28;19916;-64
2021/08/01 08:58:35;;;;;;;;;;;;;;;;;;5052512;28;19963;-69
2021/08/01 09:01:01;;;;;;;;;;;;;;;;;;5052700;28;19913;-68
2021/08/01 09:03:29;;;;;;;;;;;;;;;;;;5049546;28;19974;-66
2021/08/01 09:05:56;;;;;;;;;;;;;;;;;;5047470;28;19924;-67
2021/08/01 09:08:23;;;;;;;;;;;;;;;;;;5051578;28;20011;-70
2021/08/01 09:10:49;;;;;;;;;;;;;;;;;;5050224;28;19921;-66
2021/08/01 09:13:15;;;;;;;;;;;;;;;;;;5037169;28;20015;-69
2021/08/01 09:15:40;;;;;;;;;;;;;;;;;;5050198;28;19935;-72
2021/08/01 09:18:06;;;;;;;;;;;;;;;;;;5045344;28;19931;-67
2021/08/01 09:20:32;;;;;;;;;;;;;;;;;;5048226;28;19943;-69
2021/08/01 09:22:58;;;;;;;;;;;;;;;;;;5050535;28;19919;-68
2021/08/01 09:25:27;;;;;;;;;;;;;;;;;;5051489;28;19908;-67
2021/08/01 09:27:53;;;;;;;;;;;;;;;;;;5051926;28;20422;-69
2021/08/01 09:30:19;;;;;;;;;;;;;;;;;;5045693;28;19917;-67
2021/08/01 09:32:45;;;;;;;;;;;;;;;;;;5043821;28;19936;-66
2021/08/01 09:35:11;;;;;;;;;;;;;;;;;;5041415;28;19916;-67
2021/08/01 09:37:37;;;;;;;;;;;;;;;;;;5031015;28;20335;-67
2021/08/01 09:40:03;;;;;;;;;;;;;;;;;;5044691;28;19948;-67
2021/08/01 09:42:28;;;;;;;;;;;;;;;;;;5037356;28;20130;-66
2021/08/01 09:44:54;;;;;;;;;;;;;;;;;;5041060;28;19913;-66
2021/08/01 09:47:21;;;;;;;;;;;;;;;;;;5049370;28;19967;-66
2021/08/01 09:49:47;;;;;;;;;;;;;;;;;;5049865;28;20347;-66
2021/08/01 09:52:12;;;;;;;;;;;;;;;;;;5026126;28;19912;-64
2021/08/01 09:54:38;;;;;;;;;;;;;;;;;;5049353;28;19920;-66
2021/08/01 09:57:04;;;;;;;;;;;;;;;;;;5047954;28;19999;-66
2021/08/01 09:59:30;;;;;;;;;;;;;;;;;;5047205;28;20392;-66
2021/08/01 10:01:57;;;;;;;;;;;;;;;;;;5050628;28;20376;-67
2021/08/01 10:04:23;;;;;;;;;;;;;;;;;;5038130;28;19909;-67
2021/08/01 10:06:49;;;;;;;;;;;;;;;;;;5047839;28;19997;-67
2021/08/01 10:09:15;;;;;;;;;;;;;;;;;;5045787;28;20003;-66
2021/08/01 10:11:41;;;;;;;;;;;;;;;;;;5047183;28;19912;-71
2021/08/01 10:14:06;;;;;;;;;;;;;;;;;;5036621;28;20364;-68
2021/08/01 10:16:32;;;;;;;;;;;;;;;;;;5050328;28;20016;-65
2021/08/01 10:18:58;;;;;;;;;;;;;;;;;;5051103;28;19951;-66
2021/08/01 10:21:24;;;;;;;;;;;;;;;;;;5047046;28;19920;-66
2021/08/01 10:23:52;;;;;;;;;;;;;;;;;;5047465;28;20409;-65
2021/08/01 10:26:20;;;;;;;;;;;;;;;;;;5038355;28;19952;-67
2021/08/01 10:28:46;;;;;;;;;;;;;;;;;;5050249;28;19967;-65
2021/08/01 10:31:12;;;;;;;;;;;;;;;;;;5044816;28;19909;-68
2021/08/01 10:33:38;;;;;;;;;;;;;;;;;;5048898;28;19963;-67
2021/08/01 10:36:04;;;;;;;;;;;;;;;;;;5050178;28;19912;-68
2021/08/01 10:38:30;;;;;;;;;;;;;;;;;;5049933;28;19917;-65
2021/08/01 10:40:56;;;;;;;;;;;;;;;;;;5030697;28;19932;-66
2021/08/01 10:43:22;;;;;;;;;;;;;;;;;;5052084;28;20260;-67
2021/08/01 10:45:48;;;;;;;;;;;;;;;;;;5054319;28;20364;-68
2021/08/01 10:48:14;;;;;;;;;;;;;;;;;;5054076;28;20007;-66
2021/08/01 10:50:40;;;;;;;;;;;;;;;;;;5050933;28;19970;-68
2021/08/01 10:53:05;;;;;;;;;;;;;;;;;;5054269;28;20299;-69
2021/08/01 10:55:31;;;;;;;;;;;;;;;;;;5051384;28;19913;-70
2021/08/01 10:57:57;;;;;;;;;;;;;;;;;;5045842;28;20004;-70
2021/08/01 11:00:23;;;;;;;;;;;;;;;;;;5027892;28;19909;-71
2021/08/01 11:02:49;;;;;;;;;;;;;;;;;;5045005;28;19920;-70
2021/08/01 11:05:15;;;;;;;;;;;;;;;;;;5043213;28;20299;-70
2021/08/01 11:07:41;;;;;;;;;;;;;;;;;;5048391;28;19967;-69
2021/08/01 11:10:07;;;;;;;;;;;;;;;;;;5046796;28;19917;-69
2021/08/01 11:12:33;;;;;;;;;;;;;;;;;;5042231;28;19917;-68
2021/08/01 11:14:59;;;;;;;;;;;;;;;;;;5046255;28;20308;-69
2021/08/01 11:17:25;;;;;;;;;;;;;;;;;;5053497;28;19913;-68
2021/08/01 11:19:51;;;;;;;;;;;;;;;;;;5053445;28;19913;-67
2021/08/01 11:22:16;;;;;;;;;;;;;;;;;;5051230;28;19913;-70
2021/08/01 11:24:42;;;;;;;;;;;;;;;;;;5047430;28;19920;-67
2021/08/01 11:27:08;;;;;;;;;;;;;;;;;;5042775;28;19948;-67
2021/08/01 11:29:34;;;;;;;;;;;;;;;;;;5046579;28;19917;-67
2021/08/01 11:32:00;;;;;;;;;;;;;;;;;;5044372;28;19919;-66
2021/08/01 11:34:26;;;;;;;;;;;;;;;;;;5043929;28;20431;-68
2021/08/01 11:36:52;;;;;;;;;;;;;;;;;;5044193;28;19909;-69
2021/08/01 11:39:18;;;;;;;;;;;;;;;;;;5044240;28;19959;-69
2021/08/01 11:41:44;;;;;;;;;;;;;;;;;;5043488;28;19989;-68
2021/08/01 11:44:14;;;;;;;;;;;;;;;;;;5053051;28;20295;-67
2021/08/01 11:46:40;;;;;;;;;;;;;;;;;;5037517;28;19913;-68
2021/08/01 11:49:06;;;;;;;;;;;;;;;;;;5038025;28;19928;-69
2021/08/01 11:51:32;;;;;;;;;;;;;;;;;;5047614;28;19978;-69
2021/08/01 11:53:58;;;;;;;;;;;;;;;;;;5045421;28;20004;-68
2021/08/01 11:56:24;;;;;;;;;;;;;;;;;;5038294;28;19925;-69
2021/08/01 11:58:54;;;;;;;;;;;;;;;;;;5051037;28;19927;-68
2021/08/01 12:01:19;;;;;;;;;;;;;;;;;;5050286;28;20334;-68
2021/08/01 12:03:45;;;;;;;;;;;;;;;;;;5043041;28;19963;-69
2021/08/01 12:06:12;;;;;;;;;;;;;;;;;;5049846;28;19923;-67
2021/08/01 12:08:38;;;;;;;;;;;;;;;;;;5052691;28;19921;-67
2021/08/01 12:11:03;;;;;;;;;;;;;;;;;;5041640;28;19943;-67
2021/08/01 12:13:29;;;;;;;;;;;;;;;;;;5052674;28;20367;-67
2021/08/01 12:15:55;;;;;;;;;;;;;;;;;;5052938;28;19913;-67
2021/08/01 12:18:21;;;;;;;;;;;;;;;;;;5052631;28;19916;-67
2021/08/01 12:20:47;;;;;;;;;;;;;;;;;;5049506;28;20007;-68
2021/08/01 12:23:13;;;;;;;;;;;;;;;;;;5051592;28;19917;-68
2021/08/01 12:25:39;;;;;;;;;;;;;;;;;;5020294;28;20422;-67
2021/08/01 12:28:04;;;;;;;;;;;;;;;;;;5052701;28;20011;-68
2021/08/01 12:30:30;;;;;;;;;;;;;;;;;;5051423;28;19916;-68
2021/08/01 12:32:56;;;;;;;;;;;;;;;;;;5040058;28;19917;-70
2021/08/01 12:35:22;;;;;;;;;;;;;;;;;;5038639;28;19916;-69
2021/08/01 12:37:48;;;;;;;;;;;;;;;;;;5048102;28;19916;-68
2021/08/01 12:40:14;;;;;;;;;;;;;;;;;;5047865;28;19939;-69
2021/08/01 12:42:40;;;;;;;;;;;;;;;;;;5046843;28;19956;-68
2021/08/01 12:45:06;;;;;;;;;;;;;;;;;;5047358;28;20396;-68
2021/08/01 12:47:32;;;;;;;;;;;;;;;;;;5042929;28;19966;-67
2021/08/01 12:49:58;;;;;;;;;;;;;;;;;;5047199;28;19924;-69
2021/08/01 12:52:24;;;;;;;;;;;;;;;;;;5049326;28;20016;-67
2021/08/01 12:54:50;;;;;;;;;;;;;;;;;;5049653;28;19920;-70
2021/08/01 12:57:15;;;;;;;;;;;;;;;;;;5045280;28;19974;-71
2021/08/01 12:59:41;;;;;;;;;;;;;;;;;;5045620;28;19958;-69
2021/08/01 13:02:09;;;;;;;;;;;;;;;;;;5029262;28;19917;-68
2021/08/01 13:04:35;;;;;;;;;;;;;;;;;;5044313;28;19905;-70
2021/08/01 13:07:01;;;;;;;;;;;;;;;;;;5042598;28;19916;-69
2021/08/01 13:09:27;;;;;;;;;;;;;;;;;;5043588;28;20000;-68
2021/08/01 13:11:53;;;;;;;;;;;;;;;;;;5045043;28;19937;-67
2021/08/01 13:14:19;;;;;;;;;;;;;;;;;;5042249;28;19913;-67
2021/08/01 13:16:44;;;;;;;;;;;;;;;;;;5042957;28;19916;-68
2021/08/01 13:19:10;;;;;;;;;;;;;;;;;;5044141;28;20387;-67
2021/08/01 13:21:36;;;;;;;;;;;;;;;;;;5022595;28;19914;-68
2021/08/01 13:24:02;;;;;;;;;;;;;;;;;;5039551;28;20384;-68
2021/08/01 13:26:29;;;;;;;;;;;;;;;;;;5039887;28;19919;-69
2021/08/01 13:28:55;;;;;;;;;;;;;;;;;;5035598;28;19927;-69
2021/08/01 13:31:21;;;;;;;;;;;;;;;;;;5052054;28;19908;-69
2021/08/01 13:33:47;;;;;;;;;;;;;;;;;;5051781;28;20329;-68
2021/08/01 13:36:13;;;;;;;;;;;;;;;;;;5050895;28;19912;-68
2021/08/01 13:38:39;;;;;;;;;;;;;;;;;;5050895;28;20133;-68
2021/08/01 13:41:05;;;;;;;;;;;;;;;;;;5051306;28;19990;-68
2021/08/01 13:43:31;;;;;;;;;;;;;;;;;;5051613;28;19913;-67
2021/08/01 13:45:57;;;;;;;;;;;;;;;;;;5052087;28;20372;-67
2021/08/01 13:48:23;;;;;;;;;;;;;;;;;;5048019;28;19943;-68
2021/08/01 13:50:49;;;;;;;;;;;;;;;;;;5048227;28;20379;-68
2021/08/01 13:53:15;;;;;;;;;;;;;;;;;;5050396;28;19913;-67
2021/08/01 13:55:43;;;;;;;;;;;;;;;;;;5035548;28;19909;-67
2021/08/01 13:58:09;;;;;;;;;;;;;;;;;;5050911;28;19955;-68
2021/08/01 14:00:35;;;;;;;;;;;;;;;;;;5050630;28;20004;-69
2021/08/01 14:03:01;;;;;;;;;;;;;;;;;;5046769;28;19959;-67
2021/08/01 14:05:27;;;;;;;;;;;;;;;;;;5042705;28;20349;-69
2021/08/01 14:07:52;;;;;;;;;;;;;;;;;;5050239;28;20426;-67
2021/08/01 14:10:18;;;;;;;;;;;;;;;;;;5051620;28;19947;-70
2021/08/01 14:12:44;;;;;;;;;;;;;;;;;;5050920;28;19913;-71
2021/08/01 14:15:10;;;;;;;;;;;;;;;;;;5050278;28;19959;-70
2021/08/01 14:17:36;;;;;;;;;;;;;;;;;;5050475;28;20374;-67
2021/08/01 14:20:02;;;;;;;;;;;;;;;;;;5049682;28;19935;-72
2021/08/01 14:22:28;;;;;;;;;;;;;;;;;;5047843;28;19958;-71
2021/08/01 14:24:54;;;;;;;;;;;;;;;;;;5039661;28;20319;-68
2021/08/01 14:27:19;;;;;;;;;;;;;;;;;;5043167;28;19917;-67
2021/08/01 14:29:45;;;;;;;;;;;;;;;;;;5050695;28;19952;-66
2021/08/01 14:32:11;;;;;;;;;;;;;;;;;;5041921;28;19913;-67
2021/08/01 14:34:37;;;;;;;;;;;;;;;;;;5039202;28;19913;-59
2021/08/01 14:37:03;;;;;;;;;;;;;;;;;;5051265;28;19909;-59
2021/08/01 14:39:29;;;;;;;;;;;;;;;;;;5042019;28;20408;-61
2021/08/01 14:41:55;;;;;;;;;;;;;;;;;;5041404;28;19936;-59
2021/08/01 14:44:21;;;;;;;;;;;;;;;;;;5036561;28;19913;-59
2021/08/01 14:46:47;;;;;;;;;;;;;;;;;;5034683;28;19927;-59
2021/08/01 14:49:16;;;;;;;;;;;;;;;;;;5051073;28;19978;-59
2021/08/01 14:54:29;;;;;;;;;;;;;;;;;;5039221;28;19996;-59
2021/08/01 14:56:55;;;;;;;;;;;;;;;;;;5042454;28;19958;-59
2021/08/01 14:59:21;;;;;;;;;;;;;;;;;;5050041;28;19917;-59
2021/08/01 15:01:47;;;;;;;;;;;;;;;;;;5050605;28;23181;-59
2021/08/01 15:04:13;;;;;;;;;;;;;;;;;;5050086;28;20430;-59
2021/08/01 15:06:39;;;;;;;;;;;;;;;;;;5048779;28;19912;-59
2021/08/01 15:09:05;;;;;;;;;;;;;;;;;;5050142;28;19925;-59
2021/08/01 15:11:31;;;;;;;;;;;;;;;;;;5050127;28;20027;-59
2021/08/01 15:13:57;;;;;;;;;;;;;;;;;;5050104;28;19916;-59
2021/08/01 15:16:23;;;;;;;;;;;;;;;;;;5051004;28;19916;-59
2021/08/01 15:18:50;;;;;;;;;;;;;;;;;;5040980;28;20004;-59
2021/08/01 15:21:16;;;;;;;;;;;;;;;;;;5041682;28;20213;-59
2021/08/01 15:23:42;;;;;;;;;;;;;;;;;;5050326;28;19955;-59
2021/08/01 15:26:08;;;;;;;;;;;;;;;;;;5049472;28;20307;-59
2021/08/01 15:28:34;;;;;;;;;;;;;;;;;;5050104;28;19966;-59
2021/08/01 15:31:00;;;;;;;;;;;;;;;;;;5043942;28;19913;-59
2021/08/01 15:33:26;;;;;;;;;;;;;;;;;;5049665;28;19999;-59
2021/08/01 15:35:51;;;;;;;;;;;;;;;;;;5050722;28;19921;-59
2021/08/01 15:38:17;;;;;;;;;;;;;;;;;;5040569;28;19920;-59
2021/08/01 15:40:43;;;;;;;;;;;;;;;;;;5039334;28;20372;-59
2021/08/01 15:43:09;;;;;;;;;;;;;;;;;;5053838;28;19979;-59
2021/08/01 15:45:35;;;;;;;;;;;;;;;;;;5053268;28;19916;-59
2021/08/01 15:48:01;;;;;;;;;;;;;;;;;;5053538;28;19920;-60
2021/08/01 15:50:27;;;;;;;;;;;;;;;;;;5051607;28;19916;-60
2021/08/01 15:52:53;;;;;;;;;;;;;;;;;;5037541;28;19975;-59
2021/08/01 15:55:19;;;;;;;;;;;;;;;;;;5054079;28;19955;-59
2021/08/01 15:57:45;;;;;;;;;;;;;;;;;;5052549;28;20391;-60
2021/08/01 16:00:10;;;;;;;;;;;;;;;;;;5033375;28;19920;-59
2021/08/01 16:02:36;;;;;;;;;;;;;;;;;;5053187;28;19908;-59
2021/08/01 16:05:02;;;;;;;;;;;;;;;;;;5050023;28;19920;-59
2021/08/01 16:07:28;;;;;;;;;;;;;;;;;;5053415;28;20003;-59
2021/08/01 16:09:54;;;;;;;;;;;;;;;;;;5040970;28;19928;-58
2021/08/01 16:12:20;;;;;;;;;;;;;;;;;;5048138;28;19917;-58
2021/08/01 16:14:46;;;;;;;;;;;;;;;;;;5045467;28;20386;-58
2021/08/01 16:17:12;;;;;;;;;;;;;;;;;;5040433;28;19969;-59
2021/08/01 16:19:38;;;;;;;;;;;;;;;;;;5042833;28;20361;-58
2021/08/01 16:22:04;;;;;;;;;;;;;;;;;;5030617;28;20017;-59
2021/08/01 16:24:30;;;;;;;;;;;;;;;;;;5043875;28;19924;-61
2021/08/01 16:26:56;;;;;;;;;;;;;;;;;;5052383;28;19916;-59
2021/08/01 16:29:22;;;;;;;;;;;;;;;;;;5052763;28;19920;-59
2021/08/01 16:31:47;;;;;;;;;;;;;;;;;;5045338;28;19928;-59
2021/08/01 16:34:14;;;;;;;;;;;;;;;;;;5048028;28;20398;-59
2021/08/01 16:36:40;;;;;;;;;;;;;;;;;;5052407;28;19948;-60
2021/08/01 16:39:06;;;;;;;;;;;;;;;;;;5048313;28;19970;-60